White Hall, Texas
Current Conditions -  °F | °C
As of 2:35 PM on Friday 21 Nov 2014 (Local Time) from K11R Reporting Station
Heavy Rain Heavy Rain  
Wind Chill: 68°   Ceiling: 700
Heat Index: 68°   Visibility: 3mi
Dew Point: 67°   Wind: 6mph
Humidity: 96%   Direction: 130°SE
Pressure: 30.07"   Gusts: NA
Location:  30.367°N, 96.0045°W
Report Text: K11R 212035Z AUTO 13005KT 3SM +RA BKN007 OVC012 20/19 A3007 RMK AO2 P0014 T02000193
Loading
Personal Weather Stations






























Interactive Weather Map New forecast layout! Learn more

10-Day Weather Forecast

Advertisements
Track Severe Weather on mobile